createdAt,value
2022-08-26T00:02:24.024Z,100734.63
2022-08-26T00:04:53.203Z,100727.22
2022-08-26T00:07:22.245Z,100727.34
2022-08-26T00:09:54.352Z,100720.22
2022-08-26T00:12:37.509Z,100717.97
2022-08-26T00:15:10.190Z,100724.63
2022-08-26T00:17:40.218Z,100717.91
2022-08-26T00:20:11.511Z,100717.91
2022-08-26T00:22:41.288Z,100715.75
2022-08-26T00:25:13.180Z,100706.47
2022-08-26T00:27:44.891Z,100713.06
2022-08-26T00:30:24.263Z,100709.31
2022-08-26T00:32:56.471Z,100709.16
2022-08-26T00:35:27.966Z,100715.19
2022-08-26T00:37:58.474Z,100708.13
2022-08-26T00:40:36.004Z,100706.09
2022-08-26T00:43:07.077Z,100700.91
2022-08-26T00:45:52.093Z,100707.88
2022-08-26T00:48:25.033Z,100700.19
2022-08-26T00:50:59.302Z,100706.59
2022-08-26T00:53:35.286Z,100706.97
2022-08-26T00:56:39.241Z,100703.31
2022-08-26T00:59:12.306Z,100706.97
2022-08-26T01:01:43.919Z,100697.31
2022-08-26T01:04:18.950Z,100694.22
2022-08-26T01:06:50.433Z,100691.94
2022-08-26T01:09:21.147Z,100697.25
2022-08-26T01:11:53.968Z,100701.31
2022-08-26T01:14:28.830Z,100700.34
2022-08-26T01:16:58.188Z,100698.44
2022-08-26T01:19:32.435Z,100690.59
2022-08-26T01:22:29.860Z,100693.75
2022-08-26T01:25:04.249Z,100681.78
2022-08-26T01:27:36.183Z,100693.38
2022-08-26T01:30:06.748Z,100685.06
2022-08-26T01:32:40.206Z,100690.81
2022-08-26T01:35:10.444Z,100683.50
2022-08-26T01:37:40.945Z,100697.81
2022-08-26T01:40:16.830Z,100690.50
2022-08-26T01:42:47.709Z,100681.88
2022-08-26T01:45:22.920Z,100685.59
2022-08-26T01:47:57.155Z,100688.84
2022-08-26T01:50:31.236Z,100678.31
2022-08-26T01:53:06.842Z,100680.00
2022-08-26T01:55:38.630Z,100696.47
2022-08-26T01:58:14.714Z,100685.72
2022-08-26T02:00:44.392Z,100685.88
2022-08-26T02:03:19.841Z,100698.34
2022-08-26T02:06:01.517Z,100693.72
2022-08-26T02:08:38.065Z,100690.69
2022-08-26T02:14:30.688Z,100693.28
2022-08-26T02:17:00.343Z,100700.34
2022-08-26T02:19:33.580Z,100692.47
2022-08-26T02:22:08.564Z,100692.22
2022-08-26T02:24:56.725Z,100692.75
2022-08-26T02:27:32.253Z,100689.97
2022-08-26T02:30:11.489Z,100687.63
2022-08-26T02:32:41.856Z,100691.22
2022-08-26T02:35:18.324Z,100676.38
2022-08-26T02:37:51.288Z,100693.25
2022-08-26T02:40:24.357Z,100684.00
2022-08-26T02:42:56.975Z,100688.91
2022-08-26T02:45:28.440Z,100687.78
2022-08-26T02:47:59.619Z,100694.91
2022-08-26T02:50:29.706Z,100694.84
2022-08-26T02:52:58.784Z,100689.69
2022-08-26T02:55:28.388Z,100696.72
2022-08-26T02:57:57.488Z,100694.19
2022-08-26T03:00:27.234Z,100692.59
2022-08-26T03:02:56.701Z,100697.56
2022-08-26T03:05:26.345Z,100704.28
2022-08-26T03:07:55.667Z,100707.16
2022-08-26T03:10:26.037Z,100703.00
2022-08-26T03:12:55.317Z,100713.13
2022-08-26T03:15:25.398Z,100719.84
2022-08-26T03:17:55.783Z,100714.13
2022-08-26T03:20:26.876Z,100718.72
2022-08-26T03:22:57.772Z,100714.78
2022-08-26T03:25:28.502Z,100723.56
2022-08-26T03:27:57.588Z,100721.97
2022-08-26T03:30:45.226Z,100718.78
2022-08-26T03:33:15.820Z,100725.22
2022-08-26T03:35:50.575Z,100729.56
2022-08-26T03:38:28.187Z,100736.50
2022-08-26T03:40:57.531Z,100738.84
2022-08-26T03:43:27.654Z,100737.44
2022-08-26T03:45:57.010Z,100740.50
2022-08-26T03:48:26.348Z,100754.63
2022-08-26T03:50:55.430Z,100755.56
2022-08-26T03:53:24.759Z,100758.25
2022-08-26T03:55:54.127Z,100768.31
2022-08-26T03:58:25.279Z,100766.63
2022-08-26T04:00:55.703Z,100770.59
2022-08-26T04:03:44.989Z,100771.78
2022-08-26T04:06:14.544Z,100779.59
2022-08-26T04:08:48.979Z,100776.13
2022-08-26T04:11:20.767Z,100768.81
2022-08-26T04:13:51.003Z,100778.69
2022-08-26T04:16:20.395Z,100783.06
2022-08-26T04:18:49.987Z,100794.34
2022-08-26T04:21:20.293Z,100792.13
2022-08-26T04:23:50.460Z,100803.66
2022-08-26T04:26:20.847Z,100795.41
2022-08-26T04:28:51.492Z,100810.00
2022-08-26T04:31:21.996Z,100808.69
2022-08-26T04:33:51.601Z,100813.78
2022-08-26T04:36:20.863Z,100820.09
2022-08-26T04:38:51.574Z,100817.75
2022-08-26T04:41:20.903Z,100825.22
2022-08-26T04:43:51.246Z,100831.63
2022-08-26T04:46:24.058Z,100831.34
2022-08-26T04:48:55.132Z,100823.53
2022-08-26T04:51:28.408Z,100835.06
2022-08-26T04:53:59.040Z,100835.94
2022-08-26T04:56:33.679Z,100845.22
2022-08-26T04:59:04.078Z,100842.75
2022-08-26T05:01:39.701Z,100839.06
2022-08-26T05:04:09.168Z,100841.28
2022-08-26T05:06:39.228Z,100838.19
2022-08-26T05:09:09.322Z,100833.41
2022-08-26T05:11:39.374Z,100844.22
2022-08-26T05:14:09.192Z,100837.34
2022-08-26T05:16:40.887Z,100839.88
2022-08-26T05:19:10.324Z,100840.28
2022-08-26T05:21:39.616Z,100844.13
2022-08-26T05:24:08.892Z,100850.16
2022-08-26T05:26:38.546Z,100860.59
2022-08-26T05:29:07.564Z,100860.59
2022-08-26T05:31:37.410Z,100859.38
2022-08-26T05:34:07.007Z,100856.34
2022-08-26T05:36:38.030Z,100861.72
2022-08-26T05:39:10.693Z,100858.47
2022-08-26T05:41:43.141Z,100861.84
2022-08-26T05:44:17.041Z,100858.88
2022-08-26T05:46:46.963Z,100852.56
2022-08-26T05:49:17.195Z,100853.00
2022-08-26T05:51:47.933Z,100851.06
2022-08-26T05:54:21.700Z,100841.91
2022-08-26T05:56:54.355Z,100837.59
2022-08-26T05:59:24.565Z,100841.63
2022-08-26T06:01:55.629Z,100835.34
2022-08-26T06:04:29.730Z,100838.16
2022-08-26T06:06:59.941Z,100831.91
2022-08-26T06:09:29.539Z,100834.13
2022-08-26T06:11:59.686Z,100830.69
2022-08-26T06:14:28.833Z,100829.88
2022-08-26T06:16:58.651Z,100830.38
2022-08-26T06:19:34.335Z,100836.97
2022-08-26T06:22:23.793Z,100834.47
2022-08-26T06:25:11.395Z,100832.25
2022-08-26T06:27:40.886Z,100830.06
2022-08-26T06:30:11.246Z,100837.13
2022-08-26T06:32:41.968Z,100836.63
2022-08-26T06:35:11.878Z,100841.97
2022-08-26T06:37:42.002Z,100840.03
2022-08-26T06:40:11.972Z,100850.72
2022-08-26T06:42:42.059Z,100845.63
2022-08-26T06:45:12.724Z,100850.50
2022-08-26T06:47:47.446Z,100860.84
2022-08-26T06:50:18.658Z,100853.06
2022-08-26T06:52:47.758Z,100861.25
2022-08-26T06:55:18.367Z,100862.69
2022-08-26T06:57:47.544Z,100859.91
2022-08-26T07:00:17.237Z,100861.44
2022-08-26T07:02:49.945Z,100858.34
2022-08-26T07:05:19.801Z,100858.13
2022-08-26T07:07:49.387Z,100860.25
2022-08-26T07:10:18.477Z,100862.16
2022-08-26T07:12:47.502Z,100856.63
2022-08-26T07:15:17.290Z,100853.09
2022-08-26T07:17:46.454Z,100848.47
2022-08-26T07:20:15.554Z,100856.06
2022-08-26T07:22:44.881Z,100850.78
2022-08-26T07:25:13.974Z,100856.28
2022-08-26T07:27:43.077Z,100871.41
2022-08-26T07:30:14.925Z,100872.47
2022-08-26T07:32:44.631Z,100861.50
2022-08-26T07:35:16.570Z,100866.56
2022-08-26T07:37:45.806Z,100866.81
2022-08-26T07:40:17.515Z,100871.09
2022-08-26T07:42:47.879Z,100872.69
2022-08-26T07:45:18.426Z,100873.56
2022-08-26T07:47:48.656Z,100872.47
2022-08-26T07:50:17.743Z,100867.03
2022-08-26T07:52:46.871Z,100869.53
2022-08-26T07:55:16.616Z,100871.53
2022-08-26T07:57:45.763Z,100878.28
2022-08-26T08:00:17.309Z,100880.75
2022-08-26T08:02:46.632Z,100864.31
2022-08-26T08:05:19.177Z,100858.56
2022-08-26T08:07:48.959Z,100868.91
2022-08-26T08:10:25.343Z,100872.50
2022-08-26T08:12:57.144Z,100871.56
2022-08-26T08:15:29.664Z,100872.38
2022-08-26T08:18:00.794Z,100871.75
2022-08-26T08:20:30.972Z,100878.25
2022-08-26T08:23:01.753Z,100868.66
2022-08-26T08:25:31.634Z,100871.34
2022-08-26T08:28:01.396Z,100871.84
2022-08-26T08:30:31.097Z,100876.25
2022-08-26T08:33:05.295Z,100874.06
2022-08-26T08:35:35.522Z,100878.22
2022-08-26T08:38:05.010Z,100880.88
2022-08-26T08:40:40.560Z,100886.84
2022-08-26T08:43:37.497Z,100897.81
2022-08-26T08:46:16.254Z,100889.66
2022-08-26T08:49:00.729Z,100884.25
2022-08-26T08:51:36.013Z,100884.13
2022-08-26T08:54:06.756Z,100892.97
2022-08-26T08:56:45.867Z,100888.53
2022-08-26T08:59:21.111Z,100886.81
2022-08-26T09:01:54.094Z,100891.22
2022-08-26T09:04:29.268Z,100886.22
2022-08-26T09:07:01.709Z,100886.75
2022-08-26T09:09:58.225Z,100882.09
2022-08-26T09:12:32.027Z,100885.06
2022-08-26T09:15:20.003Z,100889.97
2022-08-26T09:18:11.106Z,100888.19
2022-08-26T09:20:56.379Z,100880.56
2022-08-26T09:23:27.183Z,100875.88
2022-08-26T09:25:59.278Z,100876.28
2022-08-26T09:28:30.859Z,100869.25
2022-08-26T09:31:10.695Z,100879.59
2022-08-26T09:33:41.494Z,100871.78
2022-08-26T09:36:16.802Z,100875.00
2022-08-26T09:38:46.963Z,100880.97
2022-08-26T09:41:34.115Z,100881.91
2022-08-26T09:44:17.725Z,100876.22
2022-08-26T09:47:00.714Z,100874.69
2022-08-26T09:49:36.064Z,100883.66
2022-08-26T09:52:28.718Z,100874.78
2022-08-26T09:55:17.099Z,100868.22
2022-08-26T09:57:52.239Z,100870.31
2022-08-26T10:00:30.548Z,100869.44
2022-08-26T10:03:03.582Z,100881.53
2022-08-26T10:05:42.118Z,100878.22
2022-08-26T10:08:38.366Z,100873.41
2022-08-26T10:11:18.972Z,100876.78
2022-08-26T10:13:56.216Z,100878.50
2022-08-26T10:16:36.137Z,100872.97
2022-08-26T10:19:16.771Z,100872.03
2022-08-26T10:22:07.686Z,100876.94
2022-08-26T10:24:44.166Z,100879.75
2022-08-26T10:27:34.985Z,100876.22
2022-08-26T10:30:11.282Z,100872.19
2022-08-26T10:32:47.246Z,100862.56
2022-08-26T10:35:20.156Z,100864.13
2022-08-26T10:37:57.479Z,100867.16
2022-08-26T10:40:50.922Z,100882.41
2022-08-26T10:43:25.807Z,100878.16
2022-08-26T10:46:02.313Z,100880.75
2022-08-26T10:49:01.377Z,100879.03
2022-08-26T10:51:39.386Z,100873.81
2022-08-26T10:54:18.833Z,100864.56
2022-08-26T10:56:53.582Z,100864.41
2022-08-26T10:59:48.914Z,100871.78
2022-08-26T11:02:37.251Z,100869.53
2022-08-26T11:05:18.049Z,100869.75
2022-08-26T11:07:55.552Z,100875.03
2022-08-26T11:10:26.147Z,100878.81
2022-08-26T11:13:05.131Z,100897.94
2022-08-26T11:15:34.399Z,100897.66
2022-08-26T11:18:08.427Z,100898.03
2022-08-26T11:20:47.247Z,100900.53
2022-08-26T11:23:28.037Z,100898.38
2022-08-26T11:26:00.227Z,100917.66
2022-08-26T11:28:48.631Z,100926.28
2022-08-26T11:31:27.065Z,100928.94
2022-08-26T11:34:04.463Z,100922.28
2022-08-26T11:36:49.994Z,100924.22
2022-08-26T11:39:36.713Z,100927.66
2022-08-26T11:42:32.821Z,100923.28
2022-08-26T11:45:15.975Z,100922.63
2022-08-26T11:47:45.668Z,100928.44
2022-08-26T11:50:28.696Z,100927.22
2022-08-26T11:53:06.332Z,100930.00
2022-08-26T11:55:43.311Z,100927.56
2022-08-26T11:58:14.521Z,100935.94
2022-08-26T12:01:09.782Z,100938.06
2022-08-26T12:03:53.161Z,100926.84
2022-08-26T12:06:36.392Z,100934.97
2022-08-26T12:09:36.682Z,100930.72
2022-08-26T12:12:12.152Z,100934.84
2022-08-26T12:14:41.739Z,100931.94
2022-08-26T12:17:22.488Z,100923.03
2022-08-26T12:19:51.809Z,100915.41
2022-08-26T12:22:25.294Z,100913.47
2022-08-26T12:25:06.195Z,100923.69
2022-08-26T12:27:42.353Z,100935.63
2022-08-26T12:30:12.384Z,100929.94
2022-08-26T12:32:52.866Z,100931.00
2022-08-26T12:35:29.674Z,100932.50
2022-08-26T12:37:59.522Z,100930.13
2022-08-26T12:40:32.060Z,100940.00
2022-08-26T12:43:03.485Z,100932.47
2022-08-26T12:45:44.980Z,100930.72
2022-08-26T12:48:27.418Z,100927.50
2022-08-26T12:50:57.515Z,100930.25
2022-08-26T12:53:32.603Z,100932.38
2022-08-26T12:56:05.485Z,100934.75
2022-08-26T12:58:41.410Z,100935.13
2022-08-26T13:01:10.623Z,100941.09
2022-08-26T13:03:45.740Z,100936.72
2022-08-26T13:06:30.336Z,100945.25
2022-08-26T13:09:06.933Z,100939.13
2022-08-26T13:11:41.527Z,100949.41
2022-08-26T13:14:15.529Z,100948.94
2022-08-26T13:16:53.893Z,100952.44
2022-08-26T13:19:26.350Z,100942.22
2022-08-26T13:21:58.450Z,100945.22
2022-08-26T13:24:32.676Z,100950.66
2022-08-26T13:27:02.538Z,100949.41
2022-08-26T13:29:31.659Z,100940.44
2022-08-26T13:32:01.508Z,100938.50
2022-08-26T13:34:31.400Z,100930.38
2022-08-26T13:37:00.529Z,100938.19
2022-08-26T13:39:29.915Z,100946.91
2022-08-26T13:41:59.212Z,100935.13
2022-08-26T13:44:28.537Z,100935.50
2022-08-26T13:46:57.998Z,100941.22
2022-08-26T13:49:27.115Z,100928.16
2022-08-26T13:51:56.112Z,100930.00
2022-08-26T13:54:25.231Z,100934.84
2022-08-26T13:56:54.460Z,100944.47
2022-08-26T13:59:23.674Z,100938.78
2022-08-26T14:01:52.811Z,100949.66
2022-08-26T14:04:22.479Z,100957.16
2022-08-26T14:06:56.859Z,100953.13
2022-08-26T14:09:25.886Z,100958.66
2022-08-26T14:11:55.310Z,100959.75
2022-08-26T14:14:24.611Z,100948.22
2022-08-26T14:17:00.077Z,100955.50
2022-08-26T14:19:31.394Z,100952.56
2022-08-26T14:22:01.689Z,100968.59
2022-08-26T14:24:31.169Z,100974.50
2022-08-26T14:27:00.336Z,100968.66
2022-08-26T14:29:29.558Z,100968.56
2022-08-26T14:32:03.372Z,100967.81
2022-08-26T14:34:32.522Z,100974.81
2022-08-26T14:37:07.823Z,100985.13
2022-08-26T14:39:38.233Z,100988.56
2022-08-26T14:42:08.145Z,100993.50
2022-08-26T14:44:38.137Z,100995.34
2022-08-26T14:47:08.076Z,101010.25
2022-08-26T14:49:37.536Z,101014.47
2022-08-26T14:52:06.580Z,101021.06
2022-08-26T14:54:35.586Z,101025.00
2022-08-26T14:57:08.765Z,101020.84
2022-08-26T14:59:50.042Z,101016.13
2022-08-26T15:02:22.254Z,101025.69
2022-08-26T15:05:03.379Z,101024.03
2022-08-26T15:07:33.222Z,101030.13
2022-08-26T15:10:02.399Z,101043.09
2022-08-26T15:12:32.231Z,101037.50
2022-08-26T15:15:01.449Z,101038.31
2022-08-26T15:17:32.096Z,101048.09
2022-08-26T15:20:02.033Z,101044.47
2022-08-26T15:22:31.276Z,101042.47
2022-08-26T15:25:00.380Z,101049.53
2022-08-26T15:27:30.210Z,101039.41
2022-08-26T15:29:59.291Z,101054.06
2022-08-26T15:32:28.408Z,101046.88
2022-08-26T15:34:57.623Z,101048.91
2022-08-26T15:37:26.708Z,101048.56
2022-08-26T15:39:57.597Z,101045.50
2022-08-26T15:42:26.831Z,101043.03
2022-08-26T15:44:56.616Z,101037.94
2022-08-26T15:47:25.926Z,101035.44
2022-08-26T15:49:57.619Z,101039.34
2022-08-26T15:52:26.852Z,101041.63
2022-08-26T15:54:56.209Z,101037.31
2022-08-26T15:57:25.366Z,101048.94
2022-08-26T15:59:55.971Z,101036.59
2022-08-26T16:02:26.474Z,101032.06
2022-08-26T16:04:58.358Z,101038.25
2022-08-26T16:07:33.227Z,101026.09
2022-08-26T16:10:03.252Z,101028.78
2022-08-26T16:12:32.509Z,101024.91
2022-08-26T16:15:01.946Z,101022.38
2022-08-26T16:17:31.007Z,101025.06
2022-08-26T16:20:00.159Z,101031.59
2022-08-26T16:22:29.324Z,101034.41
2022-08-26T16:25:03.414Z,101041.84
2022-08-26T16:27:33.312Z,101041.94
2022-08-26T16:30:03.023Z,101049.53
2022-08-26T16:32:32.337Z,101039.09
2022-08-26T16:35:01.536Z,101033.69
2022-08-26T16:37:31.284Z,101038.41
2022-08-26T16:40:01.138Z,101029.78
2022-08-26T16:42:31.805Z,101048.31
2022-08-26T16:45:01.148Z,101055.78
2022-08-26T16:47:34.038Z,101058.78
2022-08-26T16:50:05.366Z,101064.63
2022-08-26T16:52:34.960Z,101079.09
2022-08-26T16:55:09.050Z,101081.25
2022-08-26T16:57:40.315Z,101088.69
2022-08-26T17:00:14.187Z,101088.69
2022-08-26T17:02:43.390Z,101091.50
2022-08-26T17:05:12.473Z,101086.38
2022-08-26T17:07:41.893Z,101083.88
2022-08-26T17:10:11.672Z,101083.56
2022-08-26T17:12:41.154Z,101069.06
2022-08-26T17:15:13.239Z,101078.66
2022-08-26T17:17:42.666Z,101076.13
2022-08-26T17:20:15.009Z,101084.34
2022-08-26T17:22:48.395Z,101080.91
2022-08-26T17:25:24.788Z,101084.94
2022-08-26T17:27:54.179Z,101084.19
2022-08-26T17:30:24.553Z,101083.31
2022-08-26T17:32:53.757Z,101085.78
2022-08-26T17:35:23.337Z,101090.41
2022-08-26T17:37:52.900Z,101091.19
2022-08-26T17:40:24.896Z,101087.81
2022-08-26T17:42:54.342Z,101084.56
2022-08-26T17:45:24.093Z,101081.53
2022-08-26T17:47:55.296Z,101080.84
2022-08-26T17:50:24.945Z,101090.41
2022-08-26T17:52:54.091Z,101091.84
2022-08-26T17:55:23.324Z,101082.44
2022-08-26T17:57:53.449Z,101087.28
2022-08-26T18:00:28.069Z,101087.41
2022-08-26T18:02:57.462Z,101090.94
2022-08-26T18:05:26.735Z,101082.41
2022-08-26T18:07:55.894Z,101084.31
2022-08-26T18:10:26.909Z,101091.84
2022-08-26T18:12:56.155Z,101095.75
2022-08-26T18:15:25.252Z,101085.81
2022-08-26T18:17:54.885Z,101076.03
2022-08-26T18:20:23.970Z,101081.31
2022-08-26T18:22:53.160Z,101086.91
2022-08-26T18:25:22.320Z,101088.50
2022-08-26T18:27:51.463Z,101082.63
2022-08-26T18:30:22.618Z,101080.94
2022-08-26T18:32:52.653Z,101077.84
2022-08-26T18:35:22.402Z,101082.00
2022-08-26T18:37:51.500Z,101079.94
2022-08-26T18:40:21.510Z,101079.06
2022-08-26T18:42:54.206Z,101079.94
2022-08-26T18:45:23.773Z,101077.34
2022-08-26T18:47:53.190Z,101074.00
2022-08-26T18:50:22.350Z,101075.81
2022-08-26T18:52:51.385Z,101077.88
2022-08-26T18:55:20.639Z,101081.00
2022-08-26T18:57:50.259Z,101068.53
2022-08-26T19:00:19.476Z,101070.50
2022-08-26T19:02:51.887Z,101073.50
2022-08-26T19:05:21.898Z,101077.38
2022-08-26T19:07:50.944Z,101068.75
2022-08-26T19:10:20.000Z,101067.00
2022-08-26T19:12:52.136Z,101072.09
2022-08-26T19:15:21.327Z,101071.53
2022-08-26T19:17:50.404Z,101073.50
2022-08-26T19:20:19.857Z,101073.50
2022-08-26T19:22:48.872Z,101065.78
2022-08-26T19:25:18.352Z,101065.59
2022-08-26T19:27:47.414Z,101066.44
2022-08-26T19:30:16.875Z,101062.84
2022-08-26T19:32:46.081Z,101067.38
2022-08-26T19:35:15.805Z,101055.63
2022-08-26T19:37:44.832Z,101064.38
2022-08-26T19:40:14.234Z,101061.75
2022-08-26T19:42:43.279Z,101064.34
2022-08-26T19:45:24.653Z,101066.28
2022-08-26T19:47:54.789Z,101077.91
2022-08-26T19:50:26.171Z,101063.94
2022-08-26T19:52:55.644Z,101066.84
2022-08-26T19:55:25.197Z,101059.78
2022-08-26T19:57:54.620Z,101059.59
2022-08-26T20:00:28.607Z,101057.63
2022-08-26T20:02:58.058Z,101060.38
2022-08-26T20:05:28.725Z,101060.09
2022-08-26T20:08:05.601Z,101058.00
2022-08-26T20:10:37.754Z,101059.28
2022-08-26T20:13:08.740Z,101055.81
2022-08-26T20:15:37.878Z,101050.31
2022-08-26T20:18:27.130Z,101046.03
2022-08-26T20:21:14.515Z,101043.56
2022-08-26T20:23:44.542Z,101045.47
2022-08-26T20:26:14.159Z,101042.06
2022-08-26T20:28:43.290Z,101038.78
2022-08-26T20:31:12.415Z,101040.13
2022-08-26T20:33:46.287Z,101034.94
2022-08-26T20:36:16.732Z,101046.47
2022-08-26T20:38:46.917Z,101046.03
2022-08-26T20:41:17.006Z,101040.94
2022-08-26T20:43:47.132Z,101032.94
2022-08-26T20:46:20.304Z,101036.72
2022-08-26T20:48:52.178Z,101030.34
2022-08-26T20:51:22.146Z,101022.88
2022-08-26T20:53:52.126Z,101023.34
2022-08-26T20:56:25.097Z,101025.22
2022-08-26T20:58:56.558Z,101013.88
2022-08-26T21:04:20.521Z,101013.66
2022-08-26T21:06:52.801Z,101023.59
2022-08-26T21:09:26.747Z,101019.81
2022-08-26T21:11:56.143Z,101015.38
2022-08-26T21:14:26.174Z,101014.28
2022-08-26T21:16:55.524Z,101018.00
2022-08-26T21:19:24.633Z,101014.78
2022-08-26T21:21:53.728Z,101011.63
2022-08-26T21:24:22.907Z,101012.63
2022-08-26T21:26:52.122Z,101011.63
2022-08-26T21:29:22.878Z,101013.19
2022-08-26T21:31:52.033Z,101015.22
2022-08-26T21:34:21.982Z,101017.81
2022-08-26T21:36:51.100Z,101015.06
2022-08-26T21:39:20.555Z,101018.47
2022-08-26T21:41:49.806Z,101018.91
2022-08-26T21:44:19.943Z,101002.94
2022-08-26T21:46:50.726Z,101010.22
2022-08-26T21:49:20.448Z,101014.69
2022-08-26T21:51:49.984Z,101011.63
2022-08-26T21:54:19.151Z,101010.38
2022-08-26T21:56:48.889Z,101019.44
2022-08-26T21:59:20.041Z,101014.13
2022-08-26T22:01:49.267Z,101011.63
2022-08-26T22:04:19.493Z,101011.69
2022-08-26T22:06:50.972Z,101005.03
2022-08-26T22:09:23.915Z,100993.81
2022-08-26T22:11:53.926Z,100999.34
2022-08-26T22:14:27.387Z,100999.03
2022-08-26T22:17:00.809Z,100991.81
2022-08-26T22:19:32.320Z,100989.66
2022-08-26T22:22:04.589Z,100985.75
2022-08-26T22:24:33.787Z,100990.66
2022-08-26T22:27:02.785Z,100981.66
2022-08-26T22:29:34.073Z,100982.66
2022-08-26T22:32:03.511Z,100980.78
2022-08-26T22:34:32.613Z,100981.34
2022-08-26T22:37:03.337Z,100980.56
2022-08-26T22:39:32.549Z,100978.81
2022-08-26T22:42:01.762Z,100974.09
2022-08-26T22:44:32.112Z,100967.97
2022-08-26T22:47:02.041Z,100963.50
2022-08-26T22:49:31.840Z,100960.75
2022-08-26T22:52:00.887Z,100953.66
2022-08-26T22:54:29.949Z,100960.84
2022-08-26T22:56:59.173Z,100957.25
2022-08-26T22:59:28.525Z,100956.03
2022-08-26T23:01:58.153Z,100944.56
2022-08-26T23:04:30.515Z,100942.06
2022-08-26T23:06:59.819Z,100936.91
2022-08-26T23:09:33.449Z,100938.53
2022-08-26T23:12:02.565Z,100941.38
2022-08-26T23:14:33.640Z,100935.66
2022-08-26T23:17:03.960Z,100931.19
2022-08-26T23:19:33.124Z,100936.91
2022-08-26T23:22:02.930Z,100928.72
2022-08-26T23:24:32.123Z,100927.25
2022-08-26T23:27:01.759Z,100925.50
2022-08-26T23:29:30.935Z,100928.97
2022-08-26T23:32:00.230Z,100924.56
2022-08-26T23:34:47.676Z,100924.63
2022-08-26T23:37:17.298Z,100925.56
2022-08-26T23:39:46.858Z,100922.13
2022-08-26T23:42:15.990Z,100915.78
2022-08-26T23:44:45.161Z,100922.00
2022-08-26T23:47:15.203Z,100917.09
2022-08-26T23:49:44.607Z,100919.75
2022-08-26T23:52:32.039Z,100918.41
2022-08-26T23:55:01.202Z,100918.03
2022-08-26T23:57:30.300Z,100917.75
